MSC Clorinda — 3FDW7 — position and weather

sailwx.info

Track history (hours):
 
Tides and Currents Weather Stations Pressure Air Temp Water Temp Dewpoint Dewpoint Depression Visibility Wind Speed Wind Dir Waves Ship Positions

MSC Clorinda

Last reported at 2018-Feb-17 08:44 UTC. Time now 2018-Feb-18 05:35 UTC.
Position N 41°11' E 002°22'.

Length 366 m; draft 13.2 m.

Type: Ship (hazmat cat A). MMSI: 373233000.

Date/timePositionNaut miles runAvg speedWind from/ knotsBaromVisibWave heightAir tempDewpointWater temp
2018-Feb-17 08:44N 41°11' E 002°22'416.3
2018-Feb-17 08:30N 41°13' E 002°17'713.6
2018-Feb-17 08:00N 41°18' E 002°11'1 0.3
2018-Feb-17 03:29N 41°18' E 002°09'0 0.0
2018-Feb-17 02:57N 41°18' E 002°09'0 0.0
2018-Feb-17 02:30N 41°18' E 002°09'0 0.0
2018-Feb-17 02:00N 41°18' E 002°09'0 0.0
2018-Feb-17 01:30N 41°18' E 002°09'0 0.0
2018-Feb-17 01:00N 41°18' E 002°09'0 0.0
2018-Feb-17 00:30N 41°18' E 002°09'0 0.0
2018-Feb-17 00:00N 41°18' E 002°09'0 0.0
2018-Feb-16 23:30N 41°18' E 002°09'0 0.0
2018-Feb-16 23:00N 41°18' E 002°09'0 0.0
2018-Feb-16 22:30N 41°18' E 002°09'0 0.0
2018-Feb-16 22:00N 41°18' E 002°09'0 0.0
2018-Feb-16 21:30N 41°18' E 002°09'0 0.0
2018-Feb-16 21:00N 41°18' E 002°09'0 0.0
2018-Feb-16 20:30N 41°18' E 002°09'0 0.0
2018-Feb-16 20:00N 41°18' E 002°09'0 0.0
2018-Feb-16 19:30N 41°18' E 002°09'0 0.0
2018-Feb-16 19:00N 41°18' E 002°09'0 0.0
2018-Feb-16 18:30N 41°18' E 002°09'0 0.0
2018-Feb-16 18:00N 41°18' E 002°09'0 0.0
2018-Feb-16 17:30N 41°18' E 002°09'0 0.0
2018-Feb-16 17:00N 41°18' E 002°09'0 0.0
2018-Feb-16 16:30N 41°18' E 002°09'0 0.0
2018-Feb-16 16:00N 41°18' E 002°09'0 0.0
2018-Feb-16 15:30N 41°18' E 002°09'0 0.0
2018-Feb-16 15:00N 41°18' E 002°09'0 0.0
2018-Feb-16 14:30N 41°18' E 002°09'0 0.0
2018-Feb-16 14:00N 41°18' E 002°09'0 0.1
2018-Feb-16 13:30N 41°18' E 002°09'1 2.7
2018-Feb-16 13:00N 41°19' E 002°10'3 5.4
2018-Feb-16 12:30N 41°17' E 002°11'1 2.3
2018-Feb-16 12:00N 41°16' E 002°12'0 0.2
2018-Feb-16 11:30N 41°16' E 002°12'4 8.1
2018-Feb-16 11:00N 41°12' E 002°09'714.5
2018-Feb-16 10:30N 41°06' E 002°04'815.1
2018-Feb-16 10:00N 40°60' E 001°58'815.5
2018-Feb-16 09:30N 40°54' E 001°52'815.6
2018-Feb-16 09:00N 40°48' E 001°46'11717.6
2018-Feb-16 02:20N 39°28' W 000°07'617.2
2018-Feb-16 02:00N 39°26' W 000°14'4 7.4
2018-Feb-16 01:30N 39°26' W 000°19'1 1.1
2018-Feb-16 01:00N 39°26' W 000°20'0 0.0
2018-Feb-16 00:30N 39°26' W 000°20'0 0.0
2018-Feb-16 00:00N 39°26' W 000°20'0 0.0
2018-Feb-15 23:30N 39°26' W 000°20'0 0.0
2018-Feb-15 23:00N 39°26' W 000°20'0 0.0
2018-Feb-15 22:30N 39°26' W 000°20'0 0.0
2018-Feb-15 22:00N 39°26' W 000°20'0 0.0
2018-Feb-15 21:30N 39°26' W 000°20'0 0.0
2018-Feb-15 21:00N 39°26' W 000°20'0 0.0
2018-Feb-15 20:30N 39°26' W 000°20'0 0.0
2018-Feb-15 20:00N 39°26' W 000°20'0 0.0
2018-Feb-15 19:30N 39°26' W 000°20'0 0.0
2018-Feb-15 19:00N 39°26' W 000°20'0 0.0
2018-Feb-15 18:30N 39°26' W 000°20'0 0.0
2018-Feb-15 18:00N 39°26' W 000°20'0 0.0
2018-Feb-15 17:31N 39°26' W 000°20'0 0.0
2018-Feb-15 17:00N 39°26' W 000°20'0 0.0
2018-Feb-15 16:30N 39°26' W 000°20'0 0.0
2018-Feb-15 16:01N 39°26' W 000°20'0 0.0
2018-Feb-15 15:31N 39°26' W 000°20'0 0.0
2018-Feb-15 15:01N 39°26' W 000°20'0 0.0
2018-Feb-15 14:31N 39°26' W 000°20'0 0.0
2018-Feb-15 14:00N 39°26' W 000°20'0 0.0
2018-Feb-15 13:31N 39°26' W 000°20'0 0.0
2018-Feb-15 13:00N 39°26' W 000°20'0 0.0
2018-Feb-15 12:31N 39°26' W 000°20'0 0.0
2018-Feb-15 12:00N 39°26' W 000°20'0 0.0
2018-Feb-15 11:29N 39°26' W 000°20'0 0.0
2018-Feb-15 11:00N 39°26' W 000°20'0 0.0
2018-Feb-15 10:31N 39°26' W 000°20'0 0.0
2018-Feb-15 10:01N 39°26' W 000°20'0 0.0
2018-Feb-15 09:30N 39°26' W 000°20'0 0.0
2018-Feb-15 09:00N 39°26' W 000°20'0 0.0
2018-Feb-15 08:30N 39°26' W 000°20'0 0.0
2018-Feb-15 07:58N 39°26' W 000°20'0 0.0
2018-Feb-15 07:27N 39°26' W 000°20'0 0.0
2018-Feb-15 06:59N 39°26' W 000°20'0 0.0
2018-Feb-15 06:01N 39°26' W 000°20'0 0.0
2018-Feb-15 05:59N 39°26' W 000°20'0 0.0
2018-Feb-15 04:43N 39°26' W 000°20'0 0.0
2018-Feb-15 04:28N 39°26' W 000°20'0 0.0
2018-Feb-15 03:58N 39°26' W 000°20'0 0.0
2018-Feb-15 03:31N 39°26' W 000°20'0 0.0
2018-Feb-15 03:00N 39°26' W 000°20'0 0.0
2018-Feb-15 02:30N 39°26' W 000°20'0 0.0
2018-Feb-15 02:00N 39°26' W 000°20'0 0.0
2018-Feb-15 01:31N 39°26' W 000°20'0 0.0
2018-Feb-15 00:59N 39°26' W 000°20'0 0.0
2018-Feb-15 00:30N 39°26' W 000°20'0 0.0
2018-Feb-15 00:00N 39°26' W 000°20'1 1.5
2018-Feb-14 23:30N 39°26' W 000°19'3 6.0
2018-Feb-14 23:00N 39°25' W 000°15'3 5.2
2018-Feb-14 22:30N 39°25' W 000°12'611.4
2018-Feb-14 21:57N 39°25' W 000°04'14918.4
2018-Feb-14 13:49N 40°57' E 002°30'619.3
2018-Feb-14 13:30N 41°01' E 002°36'15218.9
2018-Feb-14 05:28N 42°57' E 004°48'918.9
2018-Feb-14 05:00N 43°05' E 004°55'1019.0
2018-Feb-14 04:30N 43°13' E 005°00'817.0
2018-Feb-14 04:00N 43°22' E 004°58'510.0
2018-Feb-14 03:31N 43°24' E 004°52'2 3.1
2018-Feb-14 02:58N 43°25' E 004°50'0 0.0
2018-Feb-14 02:28N 43°25' E 004°50'0 0.0
2018-Feb-14 01:58N 43°25' E 004°50'0 0.0
2018-Feb-14 01:28N 43°25' E 004°50'0 0.0
2018-Feb-14 00:58N 43°25' E 004°50'0 0.0
2018-Feb-14 00:25N 43°25' E 004°50'0 0.0
2018-Feb-13 23:58N 43°25' E 004°50'0 0.0
2018-Feb-13 23:28N 43°25' E 004°50'0 0.0
2018-Feb-13 22:58N 43°25' E 004°50'0 0.0
2018-Feb-13 22:28N 43°25' E 004°50'0 0.0
2018-Feb-13 21:58N 43°25' E 004°50'0 0.0
2018-Feb-13 21:28N 43°25' E 004°50'0 0.0
2018-Feb-13 20:58N 43°25' E 004°50'0 0.0
2018-Feb-13 20:25N 43°25' E 004°50'0 0.0
2018-Feb-13 19:55N 43°25' E 004°50'0 0.0
2018-Feb-13 19:28N 43°25' E 004°50'0 0.0
2018-Feb-13 18:58N 43°25' E 004°50'0 0.0
2018-Feb-13 18:16N 43°25' E 004°50'0 0.0
2018-Feb-13 17:58N 43°25' E 004°50'0 0.0
2018-Feb-13 17:28N 43°25' E 004°50'0 0.0
2018-Feb-13 16:58N 43°25' E 004°50'0 0.0
2018-Feb-13 16:28N 43°25' E 004°50'0 0.0
2018-Feb-13 15:58N 43°25' E 004°50'0 0.0
2018-Feb-13 15:28N 43°25' E 004°50'0 0.0
2018-Feb-13 14:58N 43°25' E 004°50'0 0.0
2018-Feb-13 14:28N 43°25' E 004°50'0 0.0
2018-Feb-13 13:58N 43°25' E 004°50'0 0.0
2018-Feb-13 13:28N 43°25' E 004°50'0 0.0
2018-Feb-13 12:58N 43°25' E 004°50'0 0.0
2018-Feb-13 12:28N 43°25' E 004°50'0 0.0
2018-Feb-13 11:58N 43°25' E 004°50'0 0.0
2018-Feb-13 11:28N 43°25' E 004°50'0 0.0
2018-Feb-13 10:58N 43°25' E 004°50'0 0.0
2018-Feb-13 10:28N 43°25' E 004°50'0 0.0
2018-Feb-13 09:58N 43°25' E 004°50'0 0.0
2018-Feb-13 09:28N 43°25' E 004°50'0 0.0
2018-Feb-13 08:58N 43°25' E 004°50'0 0.0
2018-Feb-13 08:28N 43°25' E 004°50'0 0.0
2018-Feb-13 07:58N 43°25' E 004°50'0 0.0
2018-Feb-13 07:28N 43°25' E 004°50'0 0.0
2018-Feb-13 06:58N 43°25' E 004°50'0 0.0
2018-Feb-13 06:28N 43°25' E 004°50'0 0.0
2018-Feb-13 05:58N 43°25' E 004°50'0 0.0
2018-Feb-13 05:28N 43°25' E 004°50'0 0.0
2018-Feb-13 04:58N 43°25' E 004°50'0 0.0
2018-Feb-13 04:28N 43°25' E 004°50'0 0.0
2018-Feb-13 03:58N 43°25' E 004°50'0 0.0
2018-Feb-13 03:28N 43°25' E 004°50'0 0.0
2018-Feb-13 02:58N 43°25' E 004°50'0 0.0
2018-Feb-13 02:28N 43°25' E 004°50'0 0.0
2018-Feb-13 01:58N 43°25' E 004°50'0 0.0
2018-Feb-13 01:28N 43°25' E 004°50'0 0.0
2018-Feb-13 00:58N 43°25' E 004°50'0 0.0
2018-Feb-13 00:28N 43°25' E 004°50'0 0.0
2018-Feb-12 23:58N 43°25' E 004°50'0 0.0
2018-Feb-12 23:28N 43°25' E 004°50'0 0.0
2018-Feb-12 22:58N 43°25' E 004°50'0 0.0
2018-Feb-12 22:28N 43°25' E 004°50'0 0.0
2018-Feb-12 21:58N 43°25' E 004°50'0 0.0
2018-Feb-12 21:28N 43°25' E 004°50'0 0.0
2018-Feb-12 20:58N 43°25' E 004°50'0 0.0
2018-Feb-12 20:25N 43°25' E 004°50'0 0.0
2018-Feb-12 19:58N 43°25' E 004°50'0 0.0
2018-Feb-12 19:28N 43°25' E 004°50'0 0.0
2018-Feb-12 18:58N 43°25' E 004°50'0 0.0
2018-Feb-12 18:28N 43°25' E 004°50'0 0.0
2018-Feb-12 17:58N 43°25' E 004°50'0 0.0
2018-Feb-12 17:28N 43°25' E 004°50'0 0.0
2018-Feb-12 16:58N 43°25' E 004°50'0 0.0
2018-Feb-12 16:28N 43°25' E 004°50'0 0.0
2018-Feb-12 15:58N 43°25' E 004°50'0 0.0
2018-Feb-12 15:16N 43°25' E 004°50'0 0.0
2018-Feb-12 14:58N 43°25' E 004°50'0 0.0
2018-Feb-12 14:28N 43°25' E 004°50'0 0.0
2018-Feb-12 13:58N 43°25' E 004°50'0 0.0
2018-Feb-12 13:28N 43°25' E 004°50'0 0.0
2018-Feb-12 12:58N 43°25' E 004°50'0 0.0
2018-Feb-12 12:28N 43°25' E 004°50'0 0.0
2018-Feb-12 11:58N 43°25' E 004°50'0 0.1
2018-Feb-12 11:28N 43°25' E 004°50'1 1.1
2018-Feb-12 10:59N 43°25' E 004°51'3 6.7
2018-Feb-12 10:30N 43°24' E 004°55'510.0
2018-Feb-12 10:01N 43°20' E 004°59'4 7.8
2018-Feb-12 09:31N 43°16' E 005°01'510.3
2018-Feb-12 09:00N 43°11' E 005°04'916.8
2018-Feb-12 08:29N 43°06' E 005°13'8016.1
2018-Feb-12 03:33N 43°07' E 007°02'119.0
2018-Feb-12 03:31N 43°08' E 007°03'1019.8
2018-Feb-12 02:59N 43°14' E 007°14'1020.4
2018-Feb-12 02:30N 43°21' E 007°24'4821.7
2018-Feb-12 00:17N 43°51' E 008°16'721.9
2018-Feb-11 23:59N 43°56' E 008°22'1021.7
2018-Feb-11 23:30N 44°05' E 008°29'1021.1
2018-Feb-11 23:01N 44°14' E 008°36'918.8
2018-Feb-11 22:30N 44°22' E 008°43'4 7.2
2018-Feb-11 21:55N 44°25' E 008°47'0 0.5
2018-Feb-11 21:28N 44°25' E 008°47'0 0.0
2018-Feb-11 20:58N 44°25' E 008°47'0 0.0
2018-Feb-11 20:28N 44°25' E 008°47'0 0.0
2018-Feb-11 19:58N 44°25' E 008°47'0 0.0
2018-Feb-11 19:28N 44°25' E 008°47'0 0.0
2018-Feb-11 18:58N 44°25' E 008°47'0 0.0
2018-Feb-11 18:28N 44°25' E 008°47'0 0.0
2018-Feb-11 17:58N 44°25' E 008°47'0 0.0
2018-Feb-11 17:28N 44°25' E 008°47'0 0.0
2018-Feb-11 16:58N 44°25' E 008°47'0 0.0
2018-Feb-11 16:28N 44°25' E 008°47'0 0.0
2018-Feb-11 15:58N 44°25' E 008°47'0 0.0
2018-Feb-11 15:28N 44°25' E 008°47'0 0.0
2018-Feb-11 14:58N 44°25' E 008°47'0 0.0
2018-Feb-11 14:28N 44°25' E 008°47'0 0.0
2018-Feb-11 13:58N 44°25' E 008°47'0 0.1
2018-Feb-11 13:25N 44°25' E 008°47'0 0.1
2018-Feb-11 12:58N 44°25' E 008°47'0 0.0
2018-Feb-11 12:28N 44°25' E 008°47'0 0.0
2018-Feb-11 11:58N 44°25' E 008°47'0 0.0
2018-Feb-11 11:25N 44°25' E 008°47'0 0.0
2018-Feb-11 10:58N 44°25' E 008°47'0 0.0
2018-Feb-11 10:28N 44°25' E 008°47'0 0.0
2018-Feb-11 09:58N 44°25' E 008°47'0 0.0
2018-Feb-11 09:28N 44°25' E 008°47'0 0.0
2018-Feb-11 08:55N 44°25' E 008°47'0 0.0
2018-Feb-11 08:28N 44°25' E 008°47'0 0.0
2018-Feb-11 07:58N 44°25' E 008°47'0 0.0
2018-Feb-11 07:28N 44°25' E 008°47'0 0.0
2018-Feb-11 06:58N 44°25' E 008°47'0 0.0
2018-Feb-11 06:28N 44°25' E 008°47'0 0.0
2018-Feb-11 05:58N 44°25' E 008°47'0 0.0
2018-Feb-11 05:28N 44°25' E 008°47'0 0.0
2018-Feb-11 04:58N 44°25' E 008°47'0 0.0
2018-Feb-11 04:28N 44°25' E 008°47'0 0.0
2018-Feb-11 03:58N 44°25' E 008°47'0 0.0
2018-Feb-11 03:28N 44°25' E 008°47'0 0.0
2018-Feb-11 02:58N 44°25' E 008°47'0 0.0
2018-Feb-11 02:28N 44°25' E 008°47'0 0.0
2018-Feb-11 01:58N 44°25' E 008°47'0 0.0
2018-Feb-11 01:28N 44°25' E 008°47'0 0.0
2018-Feb-11 00:58N 44°25' E 008°47'0 0.0
2018-Feb-11 00:25N 44°25' E 008°47'0 0.0
2018-Feb-10 23:58N 44°25' E 008°47'0 0.0
2018-Feb-10 23:28N 44°25' E 008°47'0 0.0
2018-Feb-10 22:58N 44°25' E 008°47'0 0.0
2018-Feb-10 22:28N 44°25' E 008°47'0 0.0
2018-Feb-10 21:58N 44°25' E 008°47'0 0.0
2018-Feb-10 21:28N 44°25' E 008°47'0 0.0
2018-Feb-10 20:58N 44°25' E 008°47'0 0.0
2018-Feb-10 20:28N 44°25' E 008°47'0 0.0
2018-Feb-10 19:58N 44°25' E 008°47'0 0.0
2018-Feb-10 19:28N 44°25' E 008°47'0 0.0
2018-Feb-10 18:58N 44°25' E 008°47'0 0.0
2018-Feb-10 18:28N 44°25' E 008°47'0 0.0
2018-Feb-10 17:55N 44°25' E 008°47'0 0.0
2018-Feb-10 17:30N 44°25' E 008°47'0 0.0
2018-Feb-10 17:00N 44°25' E 008°47'0 0.0
2018-Feb-10 16:30N 44°25' E 008°47'0 0.0
2018-Feb-10 16:00N 44°25' E 008°47'0 0.0
2018-Feb-10 15:30N 44°25' E 008°47'0 0.0
2018-Feb-10 15:00N 44°25' E 008°47'0 0.0
2018-Feb-10 14:30N 44°25' E 008°47'0 0.0
2018-Feb-10 14:00N 44°25' E 008°47'0 0.0
2018-Feb-10 13:30N 44°25' E 008°47'0 0.0
2018-Feb-10 13:00N 44°25' E 008°47'0 0.0
2018-Feb-10 12:30N 44°25' E 008°47'0 0.0
2018-Feb-10 12:00N 44°25' E 008°47'0 0.0
2018-Feb-10 11:30N 44°25' E 008°47'0 0.0
2018-Feb-10 11:00N 44°25' E 008°47'0 0.0
2018-Feb-10 10:30N 44°25' E 008°47'0 0.1
2018-Feb-10 10:00N 44°25' E 008°47'1 2.1
2018-Feb-10 09:30N 44°25' E 008°46'3 5.0
2018-Feb-10 09:00N 44°23' E 008°44'3 5.2
2018-Feb-10 08:30N 44°20' E 008°43'5 9.4
2018-Feb-10 08:00N 44°16' E 008°45'4 8.1
2018-Feb-10 07:30N 44°12' E 008°47'1 1.3
2018-Feb-10 07:00N 44°13' E 008°47'1 1.7
2018-Feb-10 06:30N 44°14' E 008°46'1 1.7
2018-Feb-10 06:00N 44°14' E 008°46'1 1.6
2018-Feb-10 05:30N 44°15' E 008°46'1 1.1
2018-Feb-10 05:00N 44°16' E 008°46'1 2.4
2018-Feb-10 04:30N 44°15' E 008°48'5 9.3
2018-Feb-10 04:00N 44°13' E 008°53'5 9.7
2018-Feb-10 03:30N 44°12' E 008°60'4 8.9
2018-Feb-10 03:00N 44°10' E 009°06'4 8.8
2018-Feb-10 02:30N 44°09' E 009°11'4 8.9
2018-Feb-10 02:00N 44°07' E 009°17'5 9.0
2018-Feb-10 01:30N 44°06' E 009°23'5 9.1
2018-Feb-10 01:00N 44°04' E 009°29'5 9.5
2018-Feb-10 00:30N 44°02' E 009°35'5 9.4
2018-Feb-10 00:00N 44°00' E 009°41'5 9.2
2018-Feb-09 23:30N 43°59' E 009°47'4 7.9
2018-Feb-09 22:59N 44°00' E 009°52'210.0
2018-Feb-09 22:46N 44°02' E 009°52'2 9.2
2018-Feb-09 22:30N 44°05' E 009°51'0 0.0
2018-Feb-08 11:00N 44°04' E 009°51'5 5.1
2018-Feb-08 10:00N 44°01' E 009°56'5 9.1
2018-Feb-08 09:30N 43°56' E 009°55'9 9.1
2018-Feb-08 08:30N 43°48' E 009°50'611.7
2018-Feb-08 08:00N 43°42' E 009°48'1110.7
2018-Feb-08 07:00N 43°32' E 009°45'612.1
2018-Feb-08 06:30N 43°26' E 009°44'1413.7
2018-Feb-08 05:30N 43°12' E 009°42'714.0
2018-Feb-08 05:00N 43°05' E 009°40'713.9
2018-Feb-08 04:30N 42°58' E 009°41'6713.6
2018-Feb-07 23:37N 41°58' E 010°18'314.3
2018-Feb-07 23:25N 41°56' E 010°21'  
Track history (hours):
 
Tides and Currents Weather Stations Pressure Air Temp Water Temp Dewpoint Dewpoint Depression Visibility Wind Speed Wind Dir Waves Ship Positions

MSC Clorinda

Last reported at 2018-Feb-17 08:44 UTC. Time now 2018-Feb-18 05:35 UTC.
Position N 41°11' E 002°22'.

Length 366 m; draft 13.2 m.

Type: Ship (hazmat cat A). MMSI: 373233000.

Date/timePositionNaut miles runAvg speedWind from/ knotsBaromVisibWave heightAir tempDewpointWater temp
2018-Feb-17 08:44N 41°11' E 002°22'416.3
2018-Feb-17 08:30N 41°13' E 002°17'713.6
2018-Feb-17 08:00N 41°18' E 002°11'1 0.3
2018-Feb-17 03:29N 41°18' E 002°09'0 0.0
2018-Feb-17 02:57N 41°18' E 002°09'0 0.0
2018-Feb-17 02:30N 41°18' E 002°09'0 0.0
2018-Feb-17 02:00N 41°18' E 002°09'0 0.0
2018-Feb-17 01:30N 41°18' E 002°09'0 0.0
2018-Feb-17 01:00N 41°18' E 002°09'0 0.0
2018-Feb-17 00:30N 41°18' E 002°09'0 0.0
2018-Feb-17 00:00N 41°18' E 002°09'0 0.0
2018-Feb-16 23:30N 41°18' E 002°09'0 0.0
2018-Feb-16 23:00N 41°18' E 002°09'0 0.0
2018-Feb-16 22:30N 41°18' E 002°09'0 0.0
2018-Feb-16 22:00N 41°18' E 002°09'0 0.0
2018-Feb-16 21:30N 41°18' E 002°09'0 0.0
2018-Feb-16 21:00N 41°18' E 002°09'0 0.0
2018-Feb-16 20:30N 41°18' E 002°09'0 0.0
2018-Feb-16 20:00N 41°18' E 002°09'0 0.0
2018-Feb-16 19:30N 41°18' E 002°09'0 0.0
2018-Feb-16 19:00N 41°18' E 002°09'0 0.0
2018-Feb-16 18:30N 41°18' E 002°09'0 0.0
2018-Feb-16 18:00N 41°18' E 002°09'0 0.0
2018-Feb-16 17:30N 41°18' E 002°09'0 0.0
2018-Feb-16 17:00N 41°18' E 002°09'0 0.0
2018-Feb-16 16:30N 41°18' E 002°09'0 0.0
2018-Feb-16 16:00N 41°18' E 002°09'0 0.0
2018-Feb-16 15:30N 41°18' E 002°09'0 0.0
2018-Feb-16 15:00N 41°18' E 002°09'0 0.0
2018-Feb-16 14:30N 41°18' E 002°09'0 0.0
2018-Feb-16 14:00N 41°18' E 002°09'0 0.1
2018-Feb-16 13:30N 41°18' E 002°09'1 2.7
2018-Feb-16 13:00N 41°19' E 002°10'3 5.4
2018-Feb-16 12:30N 41°17' E 002°11'1 2.3
2018-Feb-16 12:00N 41°16' E 002°12'0 0.2
2018-Feb-16 11:30N 41°16' E 002°12'4 8.1
2018-Feb-16 11:00N 41°12' E 002°09'714.5
2018-Feb-16 10:30N 41°06' E 002°04'815.1
2018-Feb-16 10:00N 40°60' E 001°58'815.5
2018-Feb-16 09:30N 40°54' E 001°52'815.6
2018-Feb-16 09:00N 40°48' E 001°46'11717.6
2018-Feb-16 02:20N 39°28' W 000°07'617.2
2018-Feb-16 02:00N 39°26' W 000°14'4 7.4
2018-Feb-16 01:30N 39°26' W 000°19'1 1.1
2018-Feb-16 01:00N 39°26' W 000°20'0 0.0
2018-Feb-16 00:30N 39°26' W 000°20'0 0.0
2018-Feb-16 00:00N 39°26' W 000°20'0 0.0
2018-Feb-15 23:30N 39°26' W 000°20'0 0.0
2018-Feb-15 23:00N 39°26' W 000°20'0 0.0
2018-Feb-15 22:30N 39°26' W 000°20'0 0.0
2018-Feb-15 22:00N 39°26' W 000°20'0 0.0
2018-Feb-15 21:30N 39°26' W 000°20'0 0.0
2018-Feb-15 21:00N 39°26' W 000°20'0 0.0
2018-Feb-15 20:30N 39°26' W 000°20'0 0.0
2018-Feb-15 20:00N 39°26' W 000°20'0 0.0
2018-Feb-15 19:30N 39°26' W 000°20'0 0.0
2018-Feb-15 19:00N 39°26' W 000°20'0 0.0
2018-Feb-15 18:30N 39°26' W 000°20'0 0.0
2018-Feb-15 18:00N 39°26' W 000°20'0 0.0
2018-Feb-15 17:31N 39°26' W 000°20'0 0.0
2018-Feb-15 17:00N 39°26' W 000°20'0 0.0
2018-Feb-15 16:30N 39°26' W 000°20'0 0.0
2018-Feb-15 16:01N 39°26' W 000°20'0 0.0
2018-Feb-15 15:31N 39°26' W 000°20'0 0.0
2018-Feb-15 15:01N 39°26' W 000°20'0 0.0
2018-Feb-15 14:31N 39°26' W 000°20'0 0.0
2018-Feb-15 14:00N 39°26' W 000°20'0 0.0
2018-Feb-15 13:31N 39°26' W 000°20'0 0.0
2018-Feb-15 13:00N 39°26' W 000°20'0 0.0
2018-Feb-15 12:31N 39°26' W 000°20'0 0.0
2018-Feb-15 12:00N 39°26' W 000°20'0 0.0
2018-Feb-15 11:29N 39°26' W 000°20'0 0.0
2018-Feb-15 11:00N 39°26' W 000°20'0 0.0
2018-Feb-15 10:31N 39°26' W 000°20'0 0.0
2018-Feb-15 10:01N 39°26' W 000°20'0 0.0
2018-Feb-15 09:30N 39°26' W 000°20'0 0.0
2018-Feb-15 09:00N 39°26' W 000°20'0 0.0
2018-Feb-15 08:30N 39°26' W 000°20'0 0.0
2018-Feb-15 07:58N 39°26' W 000°20'0 0.0
2018-Feb-15 07:27N 39°26' W 000°20'0 0.0
2018-Feb-15 06:59N 39°26' W 000°20'0 0.0
2018-Feb-15 06:01N 39°26' W 000°20'0 0.0
2018-Feb-15 05:59N 39°26' W 000°20'0 0.0
2018-Feb-15 04:43N 39°26' W 000°20'0 0.0
2018-Feb-15 04:28N 39°26' W 000°20'0 0.0
2018-Feb-15 03:58N 39°26' W 000°20'0 0.0
2018-Feb-15 03:31N 39°26' W 000°20'0 0.0
2018-Feb-15 03:00N 39°26' W 000°20'0 0.0
2018-Feb-15 02:30N 39°26' W 000°20'0 0.0
2018-Feb-15 02:00N 39°26' W 000°20'0 0.0
2018-Feb-15 01:31N 39°26' W 000°20'0 0.0
2018-Feb-15 00:59N 39°26' W 000°20'0 0.0
2018-Feb-15 00:30N 39°26' W 000°20'0 0.0
2018-Feb-15 00:00N 39°26' W 000°20'1 1.5
2018-Feb-14 23:30N 39°26' W 000°19'3 6.0
2018-Feb-14 23:00N 39°25' W 000°15'3 5.2
2018-Feb-14 22:30N 39°25' W 000°12'611.4
2018-Feb-14 21:57N 39°25' W 000°04'14918.4
2018-Feb-14 13:49N 40°57' E 002°30'619.3
2018-Feb-14 13:30N 41°01' E 002°36'15218.9
2018-Feb-14 05:28N 42°57' E 004°48'918.9
2018-Feb-14 05:00N 43°05' E 004°55'1019.0
2018-Feb-14 04:30N 43°13' E 005°00'817.0
2018-Feb-14 04:00N 43°22' E 004°58'510.0
2018-Feb-14 03:31N 43°24' E 004°52'2 3.1
2018-Feb-14 02:58N 43°25' E 004°50'0 0.0
2018-Feb-14 02:28N 43°25' E 004°50'0 0.0
2018-Feb-14 01:58N 43°25' E 004°50'0 0.0
2018-Feb-14 01:28N 43°25' E 004°50'0 0.0
2018-Feb-14 00:58N 43°25' E 004°50'0 0.0
2018-Feb-14 00:25N 43°25' E 004°50'0 0.0
2018-Feb-13 23:58N 43°25' E 004°50'0 0.0
2018-Feb-13 23:28N 43°25' E 004°50'0 0.0
2018-Feb-13 22:58N 43°25' E 004°50'0 0.0
2018-Feb-13 22:28N 43°25' E 004°50'0 0.0
2018-Feb-13 21:58N 43°25' E 004°50'0 0.0
2018-Feb-13 21:28N 43°25' E 004°50'0 0.0
2018-Feb-13 20:58N 43°25' E 004°50'0 0.0
2018-Feb-13 20:25N 43°25' E 004°50'0 0.0
2018-Feb-13 19:55N 43°25' E 004°50'0 0.0
2018-Feb-13 19:28N 43°25' E 004°50'0 0.0
2018-Feb-13 18:58N 43°25' E 004°50'0 0.0
2018-Feb-13 18:16N 43°25' E 004°50'0 0.0
2018-Feb-13 17:58N 43°25' E 004°50'0 0.0
2018-Feb-13 17:28N 43°25' E 004°50'0 0.0
2018-Feb-13 16:58N 43°25' E 004°50'0 0.0
2018-Feb-13 16:28N 43°25' E 004°50'0 0.0
2018-Feb-13 15:58N 43°25' E 004°50'0 0.0
2018-Feb-13 15:28N 43°25' E 004°50'0 0.0
2018-Feb-13 14:58N 43°25' E 004°50'0 0.0
2018-Feb-13 14:28N 43°25' E 004°50'0 0.0
2018-Feb-13 13:58N 43°25' E 004°50'0 0.0
2018-Feb-13 13:28N 43°25' E 004°50'0 0.0
2018-Feb-13 12:58N 43°25' E 004°50'0 0.0
2018-Feb-13 12:28N 43°25' E 004°50'0 0.0
2018-Feb-13 11:58N 43°25' E 004°50'0 0.0
2018-Feb-13 11:28N 43°25' E 004°50'0 0.0
2018-Feb-13 10:58N 43°25' E 004°50'0 0.0
2018-Feb-13 10:28N 43°25' E 004°50'0 0.0
2018-Feb-13 09:58N 43°25' E 004°50'0 0.0
2018-Feb-13 09:28N 43°25' E 004°50'0 0.0
2018-Feb-13 08:58N 43°25' E 004°50'0 0.0
2018-Feb-13 08:28N 43°25' E 004°50'0 0.0
2018-Feb-13 07:58N 43°25' E 004°50'0 0.0
2018-Feb-13 07:28N 43°25' E 004°50'0 0.0
2018-Feb-13 06:58N 43°25' E 004°50'0 0.0
2018-Feb-13 06:28N 43°25' E 004°50'0 0.0
2018-Feb-13 05:58N 43°25' E 004°50'0 0.0
2018-Feb-13 05:28N 43°25' E 004°50'0 0.0
2018-Feb-13 04:58N 43°25' E 004°50'0 0.0
2018-Feb-13 04:28N 43°25' E 004°50'0 0.0
2018-Feb-13 03:58N 43°25' E 004°50'0 0.0
2018-Feb-13 03:28N 43°25' E 004°50'0 0.0
2018-Feb-13 02:58N 43°25' E 004°50'0 0.0
2018-Feb-13 02:28N 43°25' E 004°50'0 0.0
2018-Feb-13 01:58N 43°25' E 004°50'0 0.0
2018-Feb-13 01:28N 43°25' E 004°50'0 0.0
2018-Feb-13 00:58N 43°25' E 004°50'0 0.0
2018-Feb-13 00:28N 43°25' E 004°50'0 0.0
2018-Feb-12 23:58N 43°25' E 004°50'0 0.0
2018-Feb-12 23:28N 43°25' E 004°50'0 0.0
2018-Feb-12 22:58N 43°25' E 004°50'0 0.0
2018-Feb-12 22:28N 43°25' E 004°50'0 0.0
2018-Feb-12 21:58N 43°25' E 004°50'0 0.0
2018-Feb-12 21:28N 43°25' E 004°50'0 0.0
2018-Feb-12 20:58N 43°25' E 004°50'0 0.0
2018-Feb-12 20:25N 43°25' E 004°50'0 0.0
2018-Feb-12 19:58N 43°25' E 004°50'0 0.0
2018-Feb-12 19:28N 43°25' E 004°50'0 0.0
2018-Feb-12 18:58N 43°25' E 004°50'0 0.0
2018-Feb-12 18:28N 43°25' E 004°50'0 0.0
2018-Feb-12 17:58N 43°25' E 004°50'0 0.0
2018-Feb-12 17:28N 43°25' E 004°50'0 0.0
2018-Feb-12 16:58N 43°25' E 004°50'0 0.0
2018-Feb-12 16:28N 43°25' E 004°50'0 0.0
2018-Feb-12 15:58N 43°25' E 004°50'0 0.0
2018-Feb-12 15:16N 43°25' E 004°50'0 0.0
2018-Feb-12 14:58N 43°25' E 004°50'0 0.0
2018-Feb-12 14:28N 43°25' E 004°50'0 0.0
2018-Feb-12 13:58N 43°25' E 004°50'0 0.0
2018-Feb-12 13:28N 43°25' E 004°50'0 0.0
2018-Feb-12 12:58N 43°25' E 004°50'0 0.0
2018-Feb-12 12:28N 43°25' E 004°50'0 0.0
2018-Feb-12 11:58N 43°25' E 004°50'0 0.1
2018-Feb-12 11:28N 43°25' E 004°50'1 1.1
2018-Feb-12 10:59N 43°25' E 004°51'3 6.7
2018-Feb-12 10:30N 43°24' E 004°55'510.0
2018-Feb-12 10:01N 43°20' E 004°59'4 7.8
2018-Feb-12 09:31N 43°16' E 005°01'510.3
2018-Feb-12 09:00N 43°11' E 005°04'916.8
2018-Feb-12 08:29N 43°06' E 005°13'8016.1
2018-Feb-12 03:33N 43°07' E 007°02'119.0
2018-Feb-12 03:31N 43°08' E 007°03'1019.8
2018-Feb-12 02:59N 43°14' E 007°14'1020.4
2018-Feb-12 02:30N 43°21' E 007°24'4821.7
2018-Feb-12 00:17N 43°51' E 008°16'721.9
2018-Feb-11 23:59N 43°56' E 008°22'1021.7
2018-Feb-11 23:30N 44°05' E 008°29'1021.1
2018-Feb-11 23:01N 44°14' E 008°36'918.8
2018-Feb-11 22:30N 44°22' E 008°43'4 7.2
2018-Feb-11 21:55N 44°25' E 008°47'0 0.5
2018-Feb-11 21:28N 44°25' E 008°47'0 0.0
2018-Feb-11 20:58N 44°25' E 008°47'0 0.0
2018-Feb-11 20:28N 44°25' E 008°47'0 0.0
2018-Feb-11 19:58N 44°25' E 008°47'0 0.0
2018-Feb-11 19:28N 44°25' E 008°47'0 0.0
2018-Feb-11 18:58N 44°25' E 008°47'0 0.0
2018-Feb-11 18:28N 44°25' E 008°47'0 0.0
2018-Feb-11 17:58N 44°25' E 008°47'0 0.0
2018-Feb-11 17:28N 44°25' E 008°47'0 0.0
2018-Feb-11 16:58N 44°25' E 008°47'0 0.0
2018-Feb-11 16:28N 44°25' E 008°47'0 0.0
2018-Feb-11 15:58N 44°25' E 008°47'0 0.0
2018-Feb-11 15:28N 44°25' E 008°47'0 0.0
2018-Feb-11 14:58N 44°25' E 008°47'0 0.0
2018-Feb-11 14:28N 44°25' E 008°47'0 0.0
2018-Feb-11 13:58N 44°25' E 008°47'0 0.1
2018-Feb-11 13:25N 44°25' E 008°47'0 0.1
2018-Feb-11 12:58N 44°25' E 008°47'0 0.0
2018-Feb-11 12:28N 44°25' E 008°47'0 0.0
2018-Feb-11 11:58N 44°25' E 008°47'0 0.0
2018-Feb-11 11:25N 44°25' E 008°47'0 0.0
2018-Feb-11 10:58N 44°25' E 008°47'0 0.0
2018-Feb-11 10:28N 44°25' E 008°47'0 0.0
2018-Feb-11 09:58N 44°25' E 008°47'0 0.0
2018-Feb-11 09:28N 44°25' E 008°47'0 0.0
2018-Feb-11 08:55N 44°25' E 008°47'0 0.0
2018-Feb-11 08:28N 44°25' E 008°47'0 0.0
2018-Feb-11 07:58N 44°25' E 008°47'0 0.0
2018-Feb-11 07:28N 44°25' E 008°47'0 0.0
2018-Feb-11 06:58N 44°25' E 008°47'0 0.0
2018-Feb-11 06:28N 44°25' E 008°47'0 0.0
2018-Feb-11 05:58N 44°25' E 008°47'0 0.0
2018-Feb-11 05:28N 44°25' E 008°47'0 0.0
2018-Feb-11 04:58N 44°25' E 008°47'0 0.0
2018-Feb-11 04:28N 44°25' E 008°47'0 0.0
2018-Feb-11 03:58N 44°25' E 008°47'0 0.0
2018-Feb-11 03:28N 44°25' E 008°47'0 0.0
2018-Feb-11 02:58N 44°25' E 008°47'0 0.0
2018-Feb-11 02:28N 44°25' E 008°47'0 0.0
2018-Feb-11 01:58N 44°25' E 008°47'0 0.0
2018-Feb-11 01:28N 44°25' E 008°47'0 0.0
2018-Feb-11 00:58N 44°25' E 008°47'0 0.0
2018-Feb-11 00:25N 44°25' E 008°47'0 0.0
2018-Feb-10 23:58N 44°25' E 008°47'0 0.0
2018-Feb-10 23:28N 44°25' E 008°47'0 0.0
2018-Feb-10 22:58N 44°25' E 008°47'0 0.0
2018-Feb-10 22:28N 44°25' E 008°47'0 0.0
2018-Feb-10 21:58N 44°25' E 008°47'0 0.0
2018-Feb-10 21:28N 44°25' E 008°47'0 0.0
2018-Feb-10 20:58N 44°25' E 008°47'0 0.0
2018-Feb-10 20:28N 44°25' E 008°47'0 0.0
2018-Feb-10 19:58N 44°25' E 008°47'0 0.0
2018-Feb-10 19:28N 44°25' E 008°47'0 0.0
2018-Feb-10 18:58N 44°25' E 008°47'0 0.0
2018-Feb-10 18:28N 44°25' E 008°47'0 0.0
2018-Feb-10 17:55N 44°25' E 008°47'0 0.0
2018-Feb-10 17:30N 44°25' E 008°47'0 0.0
2018-Feb-10 17:00N 44°25' E 008°47'0 0.0
2018-Feb-10 16:30N 44°25' E 008°47'0 0.0
2018-Feb-10 16:00N 44°25' E 008°47'0 0.0
2018-Feb-10 15:30N 44°25' E 008°47'0 0.0
2018-Feb-10 15:00N 44°25' E 008°47'0 0.0
2018-Feb-10 14:30N 44°25' E 008°47'0 0.0
2018-Feb-10 14:00N 44°25' E 008°47'0 0.0
2018-Feb-10 13:30N 44°25' E 008°47'0 0.0
2018-Feb-10 13:00N 44°25' E 008°47'0 0.0
2018-Feb-10 12:30N 44°25' E 008°47'0 0.0
2018-Feb-10 12:00N 44°25' E 008°47'0 0.0
2018-Feb-10 11:30N 44°25' E 008°47'0 0.0
2018-Feb-10 11:00N 44°25' E 008°47'0 0.0
2018-Feb-10 10:30N 44°25' E 008°47'0 0.1
2018-Feb-10 10:00N 44°25' E 008°47'1 2.1
2018-Feb-10 09:30N 44°25' E 008°46'3 5.0
2018-Feb-10 09:00N 44°23' E 008°44'3 5.2
2018-Feb-10 08:30N 44°20' E 008°43'5 9.4
2018-Feb-10 08:00N 44°16' E 008°45'4 8.1
2018-Feb-10 07:30N 44°12' E 008°47'1 1.3
2018-Feb-10 07:00N 44°13' E 008°47'1 1.7
2018-Feb-10 06:30N 44°14' E 008°46'1 1.7
2018-Feb-10 06:00N 44°14' E 008°46'1 1.6
2018-Feb-10 05:30N 44°15' E 008°46'1 1.1
2018-Feb-10 05:00N 44°16' E 008°46'1 2.4
2018-Feb-10 04:30N 44°15' E 008°48'5 9.3
2018-Feb-10 04:00N 44°13' E 008°53'5 9.7
2018-Feb-10 03:30N 44°12' E 008°60'4 8.9
2018-Feb-10 03:00N 44°10' E 009°06'4 8.8
2018-Feb-10 02:30N 44°09' E 009°11'4 8.9
2018-Feb-10 02:00N 44°07' E 009°17'5 9.0
2018-Feb-10 01:30N 44°06' E 009°23'5 9.1
2018-Feb-10 01:00N 44°04' E 009°29'5 9.5
2018-Feb-10 00:30N 44°02' E 009°35'5 9.4
2018-Feb-10 00:00N 44°00' E 009°41'5 9.2
2018-Feb-09 23:30N 43°59' E 009°47'4 7.9
2018-Feb-09 22:59N 44°00' E 009°52'210.0
2018-Feb-09 22:46N 44°02' E 009°52'2 9.2
2018-Feb-09 22:30N 44°05' E 009°51'0 0.0
2018-Feb-08 11:00N 44°04' E 009°51'5 5.1
2018-Feb-08 10:00N 44°01' E 009°56'5 9.1
2018-Feb-08 09:30N 43°56' E 009°55'9 9.1
2018-Feb-08 08:30N 43°48' E 009°50'611.7
2018-Feb-08 08:00N 43°42' E 009°48'1110.7
2018-Feb-08 07:00N 43°32' E 009°45'612.1
2018-Feb-08 06:30N 43°26' E 009°44'1413.7
2018-Feb-08 05:30N 43°12' E 009°42'714.0
2018-Feb-08 05:00N 43°05' E 009°40'713.9
2018-Feb-08 04:30N 42°58' E 009°41'6713.6
2018-Feb-07 23:37N 41°58' E 010°18'314.3
2018-Feb-07 23:25N 41°56' E 010°21'  

Dump ship's entire track history